sensor_id;sensor_type;location;lat;lon;timestamp;temperature;humidity
39067;DHT22;24821;51.988;6.020;2022-12-07T00:01:11;5.60;99.90
39067;DHT22;24821;51.988;6.020;2022-12-07T00:03:38;5.70;99.90
39067;DHT22;24821;51.988;6.020;2022-12-07T00:06:06;5.70;99.90
39067;DHT22;24821;51.988;6.020;2022-12-07T00:08:32;5.70;99.90
39067;DHT22;24821;51.988;6.020;2022-12-07T00:11:03;5.70;99.90
39067;DHT22;24821;51.988;6.020;2022-12-07T00:13:30;5.70;99.90
39067;DHT22;24821;51.988;6.020;2022-12-07T00:15:55;5.70;99.90
39067;DHT22;24821;51.988;6.020;2022-12-07T00:18:21;5.60;99.90
39067;DHT22;24821;51.988;6.020;2022-12-07T00:20:46;5.60;99.90
39067;DHT22;24821;51.988;6.020;2022-12-07T00:23:12;5.50;99.90
39067;DHT22;24821;51.988;6.020;2022-12-07T00:25:37;5.50;99.90
39067;DHT22;24821;51.988;6.020;2022-12-07T00:28:03;5.40;99.90
39067;DHT22;24821;51.988;6.020;2022-12-07T00:30:29;5.40;99.90
39067;DHT22;24821;51.988;6.020;2022-12-07T00:32:55;5.40;99.90
39067;DHT22;24821;51.988;6.020;2022-12-07T00:35:20;5.30;99.90
39067;DHT22;24821;51.988;6.020;2022-12-07T00:37:46;5.30;99.90
39067;DHT22;24821;51.988;6.020;2022-12-07T00:40:12;5.30;99.90
39067;DHT22;24821;51.988;6.020;2022-12-07T00:42:37;5.20;99.90
39067;DHT22;24821;51.988;6.020;2022-12-07T00:45:03;5.20;99.90
39067;DHT22;24821;51.988;6.020;2022-12-07T00:47:29;5.20;99.90
39067;DHT22;24821;51.988;6.020;2022-12-07T00:49:54;5.20;99.90
39067;DHT22;24821;51.988;6.020;2022-12-07T00:52:20;5.20;99.90
39067;DHT22;24821;51.988;6.020;2022-12-07T00:54:45;5.20;99.90
39067;DHT22;24821;51.988;6.020;2022-12-07T00:57:11;5.10;99.90
39067;DHT22;24821;51.988;6.020;2022-12-07T00:59:36;5.10;99.90
39067;DHT22;24821;51.988;6.020;2022-12-07T01:02:02;5.10;99.90
39067;DHT22;24821;51.988;6.020;2022-12-07T01:04:27;5.10;99.90
39067;DHT22;24821;51.988;6.020;2022-12-07T01:06:53;5.10;99.90
39067;DHT22;24821;51.988;6.020;2022-12-07T01:09:19;5.00;99.90
39067;DHT22;24821;51.988;6.020;2022-12-07T01:11:44;5.00;99.90
39067;DHT22;24821;51.988;6.020;2022-12-07T01:14:10;5.00;99.90
39067;DHT22;24821;51.988;6.020;2022-12-07T01:16:35;5.00;99.90
39067;DHT22;24821;51.988;6.020;2022-12-07T01:19:01;4.90;99.90
39067;DHT22;24821;51.988;6.020;2022-12-07T01:21:32;5.00;99.90
39067;DHT22;24821;51.988;6.020;2022-12-07T01:24:04;5.00;99.90
39067;DHT22;24821;51.988;6.020;2022-12-07T01:26:30;4.90;99.90
39067;DHT22;24821;51.988;6.020;2022-12-07T01:28:56;4.90;99.90
39067;DHT22;24821;51.988;6.020;2022-12-07T01:31:26;4.80;99.90
39067;DHT22;24821;51.988;6.020;2022-12-07T01:33:55;4.90;99.90
39067;DHT22;24821;51.988;6.020;2022-12-07T01:38:54;4.80;99.90
39067;DHT22;24821;51.988;6.020;2022-12-07T01:41:22;4.80;99.90
39067;DHT22;24821;51.988;6.020;2022-12-07T01:46:36;4.80;99.90
39067;DHT22;24821;51.988;6.020;2022-12-07T01:49:02;4.70;99.90
39067;DHT22;24821;51.988;6.020;2022-12-07T01:51:29;4.70;99.90
39067;DHT22;24821;51.988;6.020;2022-12-07T01:53:55;4.70;99.90
39067;DHT22;24821;51.988;6.020;2022-12-07T01:56:24;4.70;99.90
39067;DHT22;24821;51.988;6.020;2022-12-07T01:58:51;4.70;99.90
39067;DHT22;24821;51.988;6.020;2022-12-07T02:01:17;4.70;99.90
39067;DHT22;24821;51.988;6.020;2022-12-07T02:03:43;4.60;99.90
39067;DHT22;24821;51.988;6.020;2022-12-07T02:06:12;4.60;99.90
39067;DHT22;24821;51.988;6.020;2022-12-07T02:08:38;4.60;99.90
39067;DHT22;24821;51.988;6.020;2022-12-07T02:11:05;4.60;99.90
39067;DHT22;24821;51.988;6.020;2022-12-07T02:13:35;4.60;99.90
39067;DHT22;24821;51.988;6.020;2022-12-07T02:21:52;4.60;99.90
39067;DHT22;24821;51.988;6.020;2022-12-07T02:29:38;4.50;99.90
39067;DHT22;24821;51.988;6.020;2022-12-07T02:34:49;4.50;99.90
39067;DHT22;24821;51.988;6.020;2022-12-07T02:42:42;4.40;99.90
39067;DHT22;24821;51.988;6.020;2022-12-07T02:45:10;4.40;99.90
39067;DHT22;24821;51.988;6.020;2022-12-07T02:47:37;4.40;99.90
39067;DHT22;24821;51.988;6.020;2022-12-07T02:50:05;4.40;99.90
39067;DHT22;24821;51.988;6.020;2022-12-07T02:52:31;4.40;99.90
39067;DHT22;24821;51.988;6.020;2022-12-07T02:54:57;4.40;99.90
39067;DHT22;24821;51.988;6.020;2022-12-07T03:00:09;4.40;99.90
39067;DHT22;24821;51.988;6.020;2022-12-07T03:05:43;4.40;99.90
39067;DHT22;24821;51.988;6.020;2022-12-07T03:11:10;4.30;99.90
39067;DHT22;24821;51.988;6.020;2022-12-07T03:13:59;4.30;99.90
39067;DHT22;24821;51.988;6.020;2022-12-07T03:16:33;4.40;99.90
39067;DHT22;24821;51.988;6.020;2022-12-07T03:21:37;4.40;99.90
39067;DHT22;24821;51.988;6.020;2022-12-07T03:24:08;4.50;99.90
39067;DHT22;24821;51.988;6.020;2022-12-07T03:26:38;4.50;99.90
39067;DHT22;24821;51.988;6.020;2022-12-07T03:29:12;4.60;99.90
39067;DHT22;24821;51.988;6.020;2022-12-07T03:31:42;4.60;99.90
39067;DHT22;24821;51.988;6.020;2022-12-07T03:34:34;4.60;99.90
39067;DHT22;24821;51.988;6.020;2022-12-07T03:37:25;4.70;99.90
39067;DHT22;24821;51.988;6.020;2022-12-07T03:42:17;4.70;99.90
39067;DHT22;24821;51.988;6.020;2022-12-07T03:44:43;4.70;99.90
39067;DHT22;24821;51.988;6.020;2022-12-07T03:47:22;4.80;99.90
39067;DHT22;24821;51.988;6.020;2022-12-07T03:49:58;4.80;99.90
39067;DHT22;24821;51.988;6.020;2022-12-07T03:57:55;4.80;99.90
39067;DHT22;24821;51.988;6.020;2022-12-07T04:00:21;4.80;99.90
39067;DHT22;24821;51.988;6.020;2022-12-07T04:02:47;4.90;99.90
39067;DHT22;24821;51.988;6.020;2022-12-07T04:05:13;4.90;99.90
39067;DHT22;24821;51.988;6.020;2022-12-07T04:07:38;4.90;99.90
39067;DHT22;24821;51.988;6.020;2022-12-07T04:10:05;4.90;99.90
39067;DHT22;24821;51.988;6.020;2022-12-07T04:12:31;4.90;99.90
39067;DHT22;24821;51.988;6.020;2022-12-07T04:14:56;4.90;99.90
39067;DHT22;24821;51.988;6.020;2022-12-07T04:17:22;4.80;99.90
39067;DHT22;24821;51.988;6.020;2022-12-07T04:19:47;4.80;99.90
39067;DHT22;24821;51.988;6.020;2022-12-07T04:22:13;4.80;99.90
39067;DHT22;24821;51.988;6.020;2022-12-07T04:24:38;4.80;99.90
39067;DHT22;24821;51.988;6.020;2022-12-07T04:27:04;4.70;99.90
39067;DHT22;24821;51.988;6.020;2022-12-07T04:29:30;4.70;99.90
39067;DHT22;24821;51.988;6.020;2022-12-07T04:31:55;4.70;99.90
39067;DHT22;24821;51.988;6.020;2022-12-07T04:34:21;4.60;99.90
39067;DHT22;24821;51.988;6.020;2022-12-07T04:36:47;4.60;99.90
39067;DHT22;24821;51.988;6.020;2022-12-07T04:39:28;4.50;99.90
39067;DHT22;24821;51.988;6.020;2022-12-07T04:41:54;4.60;99.90
39067;DHT22;24821;51.988;6.020;2022-12-07T04:44:20;4.50;99.90
39067;DHT22;24821;51.988;6.020;2022-12-07T04:46:46;4.50;99.90
39067;DHT22;24821;51.988;6.020;2022-12-07T04:49:14;4.50;99.90
39067;DHT22;24821;51.988;6.020;2022-12-07T04:51:40;4.50;99.90
39067;DHT22;24821;51.988;6.020;2022-12-07T04:54:06;4.60;99.90
39067;DHT22;24821;51.988;6.020;2022-12-07T04:56:32;4.60;99.90
39067;DHT22;24821;51.988;6.020;2022-12-07T04:58:57;4.60;99.90
39067;DHT22;24821;51.988;6.020;2022-12-07T05:01:23;4.70;99.90
39067;DHT22;24821;51.988;6.020;2022-12-07T05:03:49;4.70;99.90
39067;DHT22;24821;51.988;6.020;2022-12-07T05:06:15;4.70;99.90
39067;DHT22;24821;51.988;6.020;2022-12-07T05:08:41;4.70;99.90
39067;DHT22;24821;51.988;6.020;2022-12-07T05:11:07;4.60;99.90
39067;DHT22;24821;51.988;6.020;2022-12-07T05:13:34;4.60;99.90
39067;DHT22;24821;51.988;6.020;2022-12-07T05:16:00;4.50;99.90
39067;DHT22;24821;51.988;6.020;2022-12-07T05:18:25;4.40;99.90
39067;DHT22;24821;51.988;6.020;2022-12-07T05:20:51;4.30;99.90
39067;DHT22;24821;51.988;6.020;2022-12-07T05:23:17;4.30;99.90
39067;DHT22;24821;51.988;6.020;2022-12-07T05:25:43;4.20;99.90
39067;DHT22;24821;51.988;6.020;2022-12-07T05:28:09;4.10;99.90
39067;DHT22;24821;51.988;6.020;2022-12-07T05:30:35;4.10;99.90
39067;DHT22;24821;51.988;6.020;2022-12-07T05:33:00;4.10;99.90
39067;DHT22;24821;51.988;6.020;2022-12-07T05:35:26;4.00;99.90
39067;DHT22;24821;51.988;6.020;2022-12-07T05:37:52;4.00;99.90
39067;DHT22;24821;51.988;6.020;2022-12-07T05:40:17;4.00;99.90
39067;DHT22;24821;51.988;6.020;2022-12-07T05:42:44;3.90;99.90
39067;DHT22;24821;51.988;6.020;2022-12-07T05:45:10;3.90;99.90
39067;DHT22;24821;51.988;6.020;2022-12-07T05:47:36;3.90;99.90
39067;DHT22;24821;51.988;6.020;2022-12-07T05:50:02;3.90;99.90
39067;DHT22;24821;51.988;6.020;2022-12-07T05:52:28;3.90;99.90
39067;DHT22;24821;51.988;6.020;2022-12-07T05:54:54;4.00;99.90
39067;DHT22;24821;51.988;6.020;2022-12-07T05:57:19;4.00;99.90
39067;DHT22;24821;51.988;6.020;2022-12-07T05:59:45;4.00;99.90
39067;DHT22;24821;51.988;6.020;2022-12-07T06:02:14;4.00;99.90
39067;DHT22;24821;51.988;6.020;2022-12-07T06:04:42;4.00;99.90
39067;DHT22;24821;51.988;6.020;2022-12-07T06:07:09;4.00;99.90
39067;DHT22;24821;51.988;6.020;2022-12-07T06:09:35;4.00;99.90
39067;DHT22;24821;51.988;6.020;2022-12-07T06:12:02;4.00;99.90
39067;DHT22;24821;51.988;6.020;2022-12-07T06:14:46;3.90;99.90
39067;DHT22;24821;51.988;6.020;2022-12-07T06:17:13;3.90;99.90
39067;DHT22;24821;51.988;6.020;2022-12-07T06:19:39;3.80;99.90
39067;DHT22;24821;51.988;6.020;2022-12-07T06:22:05;3.80;99.90
39067;DHT22;24821;51.988;6.020;2022-12-07T06:24:32;3.80;99.90
39067;DHT22;24821;51.988;6.020;2022-12-07T06:26:58;3.80;99.90
39067;DHT22;24821;51.988;6.020;2022-12-07T06:29:23;3.70;99.90
39067;DHT22;24821;51.988;6.020;2022-12-07T06:31:49;3.70;99.90
39067;DHT22;24821;51.988;6.020;2022-12-07T06:34:18;3.60;99.90
39067;DHT22;24821;51.988;6.020;2022-12-07T06:36:45;3.70;99.90
39067;DHT22;24821;51.988;6.020;2022-12-07T06:39:11;3.60;99.90
39067;DHT22;24821;51.988;6.020;2022-12-07T06:41:37;3.60;99.90
39067;DHT22;24821;51.988;6.020;2022-12-07T06:44:04;3.60;99.90
39067;DHT22;24821;51.988;6.020;2022-12-07T06:46:30;3.60;99.90
39067;DHT22;24821;51.988;6.020;2022-12-07T06:48:56;3.60;99.90
39067;DHT22;24821;51.988;6.020;2022-12-07T06:51:21;3.50;99.90
39067;DHT22;24821;51.988;6.020;2022-12-07T06:53:47;3.60;99.90
39067;DHT22;24821;51.988;6.020;2022-12-07T06:56:13;3.50;99.90
39067;DHT22;24821;51.988;6.020;2022-12-07T06:58:39;3.50;99.90
39067;DHT22;24821;51.988;6.020;2022-12-07T07:01:10;3.50;99.90
39067;DHT22;24821;51.988;6.020;2022-12-07T07:03:35;3.60;99.90
39067;DHT22;24821;51.988;6.020;2022-12-07T07:06:01;3.50;99.90
39067;DHT22;24821;51.988;6.020;2022-12-07T07:08:26;3.60;99.90
39067;DHT22;24821;51.988;6.020;2022-12-07T07:10:52;3.50;99.90
39067;DHT22;24821;51.988;6.020;2022-12-07T07:13:18;3.50;99.90
39067;DHT22;24821;51.988;6.020;2022-12-07T07:15:44;3.50;99.90
39067;DHT22;24821;51.988;6.020;2022-12-07T07:18:09;3.50;99.90
39067;DHT22;24821;51.988;6.020;2022-12-07T07:20:35;3.40;99.90
39067;DHT22;24821;51.988;6.020;2022-12-07T07:23:00;3.50;99.90
39067;DHT22;24821;51.988;6.020;2022-12-07T07:25:26;3.50;99.90
39067;DHT22;24821;51.988;6.020;2022-12-07T07:27:51;3.40;99.90
39067;DHT22;24821;51.988;6.020;2022-12-07T07:30:17;3.40;99.90
39067;DHT22;24821;51.988;6.020;2022-12-07T07:32:43;3.40;99.90
39067;DHT22;24821;51.988;6.020;2022-12-07T07:35:08;3.40;99.90
39067;DHT22;24821;51.988;6.020;2022-12-07T07:37:34;3.40;99.90
39067;DHT22;24821;51.988;6.020;2022-12-07T07:39:59;3.40;99.90
39067;DHT22;24821;51.988;6.020;2022-12-07T07:42:25;3.40;99.90
39067;DHT22;24821;51.988;6.020;2022-12-07T07:44:50;3.40;99.90
39067;DHT22;24821;51.988;6.020;2022-12-07T07:47:16;3.40;99.90
39067;DHT22;24821;51.988;6.020;2022-12-07T07:49:41;3.30;99.90
39067;DHT22;24821;51.988;6.020;2022-12-07T07:52:07;3.30;99.90
39067;DHT22;24821;51.988;6.020;2022-12-07T07:54:33;3.30;99.90
39067;DHT22;24821;51.988;6.020;2022-12-07T07:56:58;3.20;99.90
39067;DHT22;24821;51.988;6.020;2022-12-07T07:59:24;3.20;99.90
39067;DHT22;24821;51.988;6.020;2022-12-07T08:01:50;3.20;99.90
39067;DHT22;24821;51.988;6.020;2022-12-07T08:04:16;3.20;99.90
39067;DHT22;24821;51.988;6.020;2022-12-07T08:06:41;3.20;99.90
39067;DHT22;24821;51.988;6.020;2022-12-07T08:09:07;3.20;99.90
39067;DHT22;24821;51.988;6.020;2022-12-07T08:11:33;3.20;99.90
39067;DHT22;24821;51.988;6.020;2022-12-07T08:13:59;3.20;99.90
39067;DHT22;24821;51.988;6.020;2022-12-07T08:16:25;3.20;99.90
39067;DHT22;24821;51.988;6.020;2022-12-07T08:18:50;3.20;99.90
39067;DHT22;24821;51.988;6.020;2022-12-07T08:21:16;3.20;99.90
39067;DHT22;24821;51.988;6.020;2022-12-07T08:23:42;3.30;99.90
39067;DHT22;24821;51.988;6.020;2022-12-07T08:26:10;3.40;99.90
39067;DHT22;24821;51.988;6.020;2022-12-07T08:28:36;3.60;99.90
39067;DHT22;24821;51.988;6.020;2022-12-07T08:31:05;3.70;99.90
39067;DHT22;24821;51.988;6.020;2022-12-07T08:33:31;3.80;99.90
39067;DHT22;24821;51.988;6.020;2022-12-07T08:36:16;3.90;99.90
39067;DHT22;24821;51.988;6.020;2022-12-07T08:38:42;4.00;99.90
39067;DHT22;24821;51.988;6.020;2022-12-07T08:41:08;4.10;99.90
39067;DHT22;24821;51.988;6.020;2022-12-07T08:43:34;4.10;99.90
39067;DHT22;24821;51.988;6.020;2022-12-07T08:46:10;4.20;99.90
39067;DHT22;24821;51.988;6.020;2022-12-07T08:51:23;4.40;99.90
39067;DHT22;24821;51.988;6.020;2022-12-07T08:53:50;4.40;99.90
39067;DHT22;24821;51.988;6.020;2022-12-07T08:56:16;4.50;99.90
39067;DHT22;24821;51.988;6.020;2022-12-07T08:58:42;4.50;99.90
39067;DHT22;24821;51.988;6.020;2022-12-07T09:01:08;4.50;99.90
39067;DHT22;24821;51.988;6.020;2022-12-07T09:03:34;4.60;99.90
39067;DHT22;24821;51.988;6.020;2022-12-07T09:06:00;4.60;99.90
39067;DHT22;24821;51.988;6.020;2022-12-07T09:08:32;4.50;99.90
39067;DHT22;24821;51.988;6.020;2022-12-07T09:10:59;4.50;99.90
39067;DHT22;24821;51.988;6.020;2022-12-07T09:13:25;4.50;99.90
39067;DHT22;24821;51.988;6.020;2022-12-07T09:15:51;4.50;99.90
39067;DHT22;24821;51.988;6.020;2022-12-07T09:18:16;4.60;99.90
39067;DHT22;24821;51.988;6.020;2022-12-07T09:20:42;4.60;99.90
39067;DHT22;24821;51.988;6.020;2022-12-07T09:23:07;4.60;99.90
39067;DHT22;24821;51.988;6.020;2022-12-07T09:25:34;4.60;99.90
39067;DHT22;24821;51.988;6.020;2022-12-07T09:27:59;4.70;99.90
39067;DHT22;24821;51.988;6.020;2022-12-07T09:30:26;4.70;99.90
39067;DHT22;24821;51.988;6.020;2022-12-07T09:32:56;4.90;99.90
39067;DHT22;24821;51.988;6.020;2022-12-07T09:35:22;5.00;99.90
39067;DHT22;24821;51.988;6.020;2022-12-07T09:37:48;5.10;99.90
39067;DHT22;24821;51.988;6.020;2022-12-07T09:40:16;5.30;99.90
39067;DHT22;24821;51.988;6.020;2022-12-07T09:42:44;5.30;99.90
39067;DHT22;24821;51.988;6.020;2022-12-07T09:45:19;5.40;99.90
39067;DHT22;24821;51.988;6.020;2022-12-07T09:47:46;5.50;99.90
39067;DHT22;24821;51.988;6.020;2022-12-07T09:50:15;5.50;99.90
39067;DHT22;24821;51.988;6.020;2022-12-07T09:52:44;5.50;99.90
39067;DHT22;24821;51.988;6.020;2022-12-07T09:55:16;5.50;99.90
39067;DHT22;24821;51.988;6.020;2022-12-07T09:57:44;5.60;99.90
39067;DHT22;24821;51.988;6.020;2022-12-07T10:00:15;5.60;99.90
39067;DHT22;24821;51.988;6.020;2022-12-07T10:02:51;5.60;99.90
39067;DHT22;24821;51.988;6.020;2022-12-07T10:05:22;5.70;99.90
39067;DHT22;24821;51.988;6.020;2022-12-07T10:07:48;5.70;99.90
39067;DHT22;24821;51.988;6.020;2022-12-07T10:10:26;5.70;99.90
39067;DHT22;24821;51.988;6.020;2022-12-07T10:15:19;5.70;99.90
39067;DHT22;24821;51.988;6.020;2022-12-07T10:17:50;5.70;99.90
39067;DHT22;24821;51.988;6.020;2022-12-07T10:20:26;5.70;99.90
39067;DHT22;24821;51.988;6.020;2022-12-07T10:23:03;5.80;99.90
39067;DHT22;24821;51.988;6.020;2022-12-07T10:25:35;5.90;99.90
39067;DHT22;24821;51.988;6.020;2022-12-07T10:30:33;6.00;99.90
39067;DHT22;24821;51.988;6.020;2022-12-07T10:35:58;6.00;99.90
39067;DHT22;24821;51.988;6.020;2022-12-07T10:38:28;6.10;99.90
39067;DHT22;24821;51.988;6.020;2022-12-07T10:41:05;6.10;99.90
39067;DHT22;24821;51.988;6.020;2022-12-07T10:43:31;6.10;99.90
39067;DHT22;24821;51.988;6.020;2022-12-07T10:57:22;6.20;99.90
39067;DHT22;24821;51.988;6.020;2022-12-07T10:59:58;6.40;99.90
39067;DHT22;24821;51.988;6.020;2022-12-07T11:21:48;6.60;99.90
39067;DHT22;24821;51.988;6.020;2022-12-07T11:27:08;6.60;99.90
39067;DHT22;24821;51.988;6.020;2022-12-07T11:29:47;6.60;99.90
39067;DHT22;24821;51.988;6.020;2022-12-07T11:37:51;6.70;99.90
39067;DHT22;24821;51.988;6.020;2022-12-07T11:42:52;6.70;99.90
39067;DHT22;24821;51.988;6.020;2022-12-07T11:45:31;6.70;99.90
39067;DHT22;24821;51.988;6.020;2022-12-07T11:48:02;6.70;99.90
39067;DHT22;24821;51.988;6.020;2022-12-07T11:50:51;6.70;99.90
39067;DHT22;24821;51.988;6.020;2022-12-07T11:56:14;6.70;99.90
39067;DHT22;24821;51.988;6.020;2022-12-07T11:58:57;6.80;99.90
39067;DHT22;24821;51.988;6.020;2022-12-07T12:01:53;6.80;99.90
39067;DHT22;24821;51.988;6.020;2022-12-07T12:04:30;6.80;99.90
39067;DHT22;24821;51.988;6.020;2022-12-07T12:06:58;6.90;99.90
39067;DHT22;24821;51.988;6.020;2022-12-07T12:09:41;7.00;99.90
39067;DHT22;24821;51.988;6.020;2022-12-07T12:12:29;7.00;99.90
39067;DHT22;24821;51.988;6.020;2022-12-07T12:22:30;6.80;99.90
39067;DHT22;24821;51.988;6.020;2022-12-07T12:24:58;6.80;99.90
39067;DHT22;24821;51.988;6.020;2022-12-07T12:27:27;6.70;99.90
39067;DHT22;24821;51.988;6.020;2022-12-07T12:29:58;6.80;99.90
39067;DHT22;24821;51.988;6.020;2022-12-07T12:32:36;6.80;99.90
39067;DHT22;24821;51.988;6.020;2022-12-07T12:37:46;7.00;99.90
39067;DHT22;24821;51.988;6.020;2022-12-07T12:42:54;7.10;99.90
39067;DHT22;24821;51.988;6.020;2022-12-07T12:45:24;7.20;99.90
39067;DHT22;24821;51.988;6.020;2022-12-07T12:47:58;7.20;99.90
39067;DHT22;24821;51.988;6.020;2022-12-07T12:50:26;7.30;99.90
39067;DHT22;24821;51.988;6.020;2022-12-07T12:53:12;7.40;99.90
39067;DHT22;24821;51.988;6.020;2022-12-07T13:00:46;7.60;99.90
39067;DHT22;24821;51.988;6.020;2022-12-07T13:03:29;7.60;99.90
39067;DHT22;24821;51.988;6.020;2022-12-07T13:08:51;7.50;99.90
39067;DHT22;24821;51.988;6.020;2022-12-07T13:11:44;7.40;99.90
39067;DHT22;24821;51.988;6.020;2022-12-07T13:14:40;7.40;99.90
39067;DHT22;24821;51.988;6.020;2022-12-07T13:27:28;7.40;99.90
39067;DHT22;24821;51.988;6.020;2022-12-07T13:29:56;7.40;99.90
39067;DHT22;24821;51.988;6.020;2022-12-07T13:32:31;7.40;99.90
39067;DHT22;24821;51.988;6.020;2022-12-07T13:34:57;7.50;99.90
39067;DHT22;24821;51.988;6.020;2022-12-07T13:37:30;7.60;99.90
39067;DHT22;24821;51.988;6.020;2022-12-07T13:39:59;7.70;99.90
39067;DHT22;24821;51.988;6.020;2022-12-07T13:42:33;7.70;99.90
39067;DHT22;24821;51.988;6.020;2022-12-07T13:45:13;7.70;99.90
39067;DHT22;24821;51.988;6.020;2022-12-07T13:47:49;7.70;99.90
39067;DHT22;24821;51.988;6.020;2022-12-07T13:50:26;7.70;99.90
39067;DHT22;24821;51.988;6.020;2022-12-07T13:52:54;7.70;99.90
39067;DHT22;24821;51.988;6.020;2022-12-07T13:55:21;7.60;99.90
39067;DHT22;24821;51.988;6.020;2022-12-07T13:57:51;7.60;99.90
39067;DHT22;24821;51.988;6.020;2022-12-07T14:00:25;7.60;99.90
39067;DHT22;24821;51.988;6.020;2022-12-07T14:02:57;7.70;99.90
39067;DHT22;24821;51.988;6.020;2022-12-07T14:05:38;7.70;99.90
39067;DHT22;24821;51.988;6.020;2022-12-07T14:16:35;7.80;99.90
39067;DHT22;24821;51.988;6.020;2022-12-07T14:19:03;7.70;99.90
39067;DHT22;24821;51.988;6.020;2022-12-07T14:21:34;7.60;99.90
39067;DHT22;24821;51.988;6.020;2022-12-07T14:24:16;7.60;99.90
39067;DHT22;24821;51.988;6.020;2022-12-07T14:26:47;7.50;99.90
39067;DHT22;24821;51.988;6.020;2022-12-07T14:29:32;7.30;99.90
39067;DHT22;24821;51.988;6.020;2022-12-07T14:32:20;7.20;99.90
39067;DHT22;24821;51.988;6.020;2022-12-07T14:35:08;7.10;99.90
39067;DHT22;24821;51.988;6.020;2022-12-07T14:37:36;7.00;99.90
39067;DHT22;24821;51.988;6.020;2022-12-07T14:40:02;6.90;99.90
39067;DHT22;24821;51.988;6.020;2022-12-07T14:42:29;6.80;99.90
39067;DHT22;24821;51.988;6.020;2022-12-07T14:44:57;6.70;99.90
39067;DHT22;24821;51.988;6.020;2022-12-07T14:47:24;6.70;99.90
39067;DHT22;24821;51.988;6.020;2022-12-07T14:49:49;6.60;99.90
39067;DHT22;24821;51.988;6.020;2022-12-07T14:52:28;6.60;99.90
39067;DHT22;24821;51.988;6.020;2022-12-07T14:54:55;6.60;99.90
39067;DHT22;24821;51.988;6.020;2022-12-07T14:57:21;6.60;99.90
39067;DHT22;24821;51.988;6.020;2022-12-07T14:59:47;6.60;99.90
39067;DHT22;24821;51.988;6.020;2022-12-07T15:02:13;6.60;99.90
39067;DHT22;24821;51.988;6.020;2022-12-07T15:04:39;6.50;99.90
39067;DHT22;24821;51.988;6.020;2022-12-07T15:07:11;6.60;99.90
39067;DHT22;24821;51.988;6.020;2022-12-07T15:09:39;6.50;99.90
39067;DHT22;24821;51.988;6.020;2022-12-07T15:12:05;6.50;99.90
39067;DHT22;24821;51.988;6.020;2022-12-07T15:14:30;6.50;99.90
39067;DHT22;24821;51.988;6.020;2022-12-07T15:16:56;6.50;99.90
39067;DHT22;24821;51.988;6.020;2022-12-07T15:19:23;6.50;99.90
39067;DHT22;24821;51.988;6.020;2022-12-07T15:21:51;6.40;99.90
39067;DHT22;24821;51.988;6.020;2022-12-07T15:24:18;6.40;99.90
39067;DHT22;24821;51.988;6.020;2022-12-07T15:26:43;6.40;99.90
39067;DHT22;24821;51.988;6.020;2022-12-07T15:29:09;6.40;99.90
39067;DHT22;24821;51.988;6.020;2022-12-07T15:31:35;6.40;99.90
39067;DHT22;24821;51.988;6.020;2022-12-07T15:34:02;6.40;99.90
39067;DHT22;24821;51.988;6.020;2022-12-07T15:36:30;6.40;99.90
39067;DHT22;24821;51.988;6.020;2022-12-07T15:38:56;6.50;99.90
39067;DHT22;24821;51.988;6.020;2022-12-07T15:41:22;6.50;99.90
39067;DHT22;24821;51.988;6.020;2022-12-07T15:43:48;6.40;99.90
39067;DHT22;24821;51.988;6.020;2022-12-07T15:46:37;6.50;99.90
39067;DHT22;24821;51.988;6.020;2022-12-07T15:49:04;6.40;99.90
39067;DHT22;24821;51.988;6.020;2022-12-07T15:51:30;6.40;99.90
39067;DHT22;24821;51.988;6.020;2022-12-07T15:53:57;6.40;99.90
39067;DHT22;24821;51.988;6.020;2022-12-07T15:56:23;6.30;99.90
39067;DHT22;24821;51.988;6.020;2022-12-07T15:58:48;6.30;99.90
39067;DHT22;24821;51.988;6.020;2022-12-07T16:01:16;6.30;99.90
39067;DHT22;24821;51.988;6.020;2022-12-07T16:03:42;6.30;99.90
39067;DHT22;24821;51.988;6.020;2022-12-07T16:06:08;6.30;99.90
39067;DHT22;24821;51.988;6.020;2022-12-07T16:08:33;6.30;99.90
39067;DHT22;24821;51.988;6.020;2022-12-07T16:10:59;6.30;99.90
39067;DHT22;24821;51.988;6.020;2022-12-07T16:13:24;6.30;99.90
39067;DHT22;24821;51.988;6.020;2022-12-07T16:15:50;6.30;99.90
39067;DHT22;24821;51.988;6.020;2022-12-07T16:18:15;6.30;99.90
39067;DHT22;24821;51.988;6.020;2022-12-07T16:20:41;6.30;99.90
39067;DHT22;24821;51.988;6.020;2022-12-07T16:23:07;6.30;99.90
39067;DHT22;24821;51.988;6.020;2022-12-07T16:25:32;6.30;99.90
39067;DHT22;24821;51.988;6.020;2022-12-07T16:27:58;6.30;99.90
39067;DHT22;24821;51.988;6.020;2022-12-07T16:30:24;6.30;99.90
39067;DHT22;24821;51.988;6.020;2022-12-07T16:32:51;6.30;99.90
39067;DHT22;24821;51.988;6.020;2022-12-07T16:35:16;6.30;99.90
39067;DHT22;24821;51.988;6.020;2022-12-07T16:37:42;6.30;99.90
39067;DHT22;24821;51.988;6.020;2022-12-07T16:40:09;6.30;99.90
39067;DHT22;24821;51.988;6.020;2022-12-07T16:42:35;6.30;99.90
39067;DHT22;24821;51.988;6.020;2022-12-07T16:45:01;6.30;99.90
39067;DHT22;24821;51.988;6.020;2022-12-07T16:47:27;6.20;99.90
39067;DHT22;24821;51.988;6.020;2022-12-07T16:49:52;6.20;99.90
39067;DHT22;24821;51.988;6.020;2022-12-07T16:52:19;6.20;99.90
39067;DHT22;24821;51.988;6.020;2022-12-07T16:54:45;6.20;99.90
39067;DHT22;24821;51.988;6.020;2022-12-07T16:57:10;6.10;99.90
39067;DHT22;24821;51.988;6.020;2022-12-07T16:59:36;6.10;99.90
39067;DHT22;24821;51.988;6.020;2022-12-07T17:02:02;6.00;99.90
39067;DHT22;24821;51.988;6.020;2022-12-07T17:04:27;5.90;99.90
39067;DHT22;24821;51.988;6.020;2022-12-07T17:06:53;5.90;99.90
39067;DHT22;24821;51.988;6.020;2022-12-07T17:09:19;5.90;99.90
39067;DHT22;24821;51.988;6.020;2022-12-07T17:11:45;5.80;99.90
39067;DHT22;24821;51.988;6.020;2022-12-07T17:14:11;5.80;99.90
39067;DHT22;24821;51.988;6.020;2022-12-07T17:16:55;5.80;99.90
39067;DHT22;24821;51.988;6.020;2022-12-07T17:19:21;5.70;99.90
39067;DHT22;24821;51.988;6.020;2022-12-07T17:21:46;5.70;99.90
39067;DHT22;24821;51.988;6.020;2022-12-07T17:24:14;5.70;99.90
39067;DHT22;24821;51.988;6.020;2022-12-07T17:26:41;5.70;99.90
39067;DHT22;24821;51.988;6.020;2022-12-07T17:29:09;5.70;99.90
39067;DHT22;24821;51.988;6.020;2022-12-07T17:31:35;5.70;99.90
39067;DHT22;24821;51.988;6.020;2022-12-07T17:34:01;5.70;99.90
39067;DHT22;24821;51.988;6.020;2022-12-07T17:36:29;5.70;99.90
39067;DHT22;24821;51.988;6.020;2022-12-07T17:38:56;5.70;99.90
39067;DHT22;24821;51.988;6.020;2022-12-07T17:41:24;5.70;99.90
39067;DHT22;24821;51.988;6.020;2022-12-07T17:44:11;5.70;99.90
39067;DHT22;24821;51.988;6.020;2022-12-07T17:46:38;5.70;99.90
39067;DHT22;24821;51.988;6.020;2022-12-07T17:49:05;5.70;99.90
39067;DHT22;24821;51.988;6.020;2022-12-07T17:51:30;5.70;99.90
39067;DHT22;24821;51.988;6.020;2022-12-07T17:54:15;5.70;99.90
39067;DHT22;24821;51.988;6.020;2022-12-07T17:56:41;5.70;99.90
39067;DHT22;24821;51.988;6.020;2022-12-07T17:59:07;5.70;99.90
39067;DHT22;24821;51.988;6.020;2022-12-07T18:01:33;5.70;99.90
39067;DHT22;24821;51.988;6.020;2022-12-07T18:03:59;5.70;99.90
39067;DHT22;24821;51.988;6.020;2022-12-07T18:06:25;5.70;99.90
39067;DHT22;24821;51.988;6.020;2022-12-07T18:08:50;5.70;99.90
39067;DHT22;24821;51.988;6.020;2022-12-07T18:11:16;5.60;99.90